createdAt,value
2022-07-26T00:00:12.567Z,70.35
2022-07-26T00:02:47.403Z,70.92
2022-07-26T00:05:16.136Z,71.29
2022-07-26T00:07:43.987Z,71.01
2022-07-26T00:10:11.595Z,72.76
2022-07-26T00:12:38.377Z,70.93
2022-07-26T00:15:08.320Z,73.15
2022-07-26T00:17:34.983Z,71.21
2022-07-26T00:20:42.368Z,73.86
2022-07-26T00:23:12.517Z,72.98
2022-07-26T00:25:39.142Z,70.38
2022-07-26T00:28:16.293Z,70.50
2022-07-26T00:30:43.333Z,73.84
2022-07-26T00:33:09.954Z,70.88
2022-07-26T00:35:36.765Z,70.13
2022-07-26T00:38:03.568Z,71.50
2022-07-26T00:40:30.658Z,69.32
2022-07-26T00:42:57.431Z,71.57
2022-07-26T00:45:24.380Z,69.78
2022-07-26T00:47:51.191Z,70.69
2022-07-26T00:50:19.585Z,69.84
2022-07-26T00:52:48.971Z,70.38
2022-07-26T00:55:16.864Z,71.01
2022-07-26T00:57:44.119Z,71.45
2022-07-26T01:00:17.715Z,70.85
2022-07-26T01:02:45.199Z,70.65
2022-07-26T01:05:12.052Z,72.00
2022-07-26T01:07:39.674Z,70.64
2022-07-26T01:10:12.088Z,70.18
2022-07-26T01:12:42.750Z,73.83
2022-07-26T01:15:13.810Z,74.22
2022-07-26T01:17:41.740Z,72.64
2022-07-26T01:20:10.997Z,73.01
2022-07-26T01:22:37.874Z,72.26
2022-07-26T01:25:05.469Z,73.39
2022-07-26T01:27:34.461Z,73.85
2022-07-26T01:30:01.164Z,72.50
2022-07-26T01:32:27.815Z,74.73
2022-07-26T01:34:54.619Z,75.37
2022-07-26T01:37:21.263Z,74.67
2022-07-26T01:39:47.889Z,73.82
2022-07-26T01:42:14.556Z,75.83
2022-07-26T01:44:41.215Z,74.33
2022-07-26T01:47:08.016Z,73.96
2022-07-26T01:49:34.751Z,74.88
2022-07-26T01:52:01.464Z,74.00
2022-07-26T01:54:28.141Z,75.10
2022-07-26T01:56:54.761Z,74.84
2022-07-26T01:59:21.394Z,76.79
2022-07-26T02:01:48.271Z,74.76
2022-07-26T02:04:33.292Z,75.24
2022-07-26T02:06:59.967Z,76.89
2022-07-26T02:09:26.648Z,75.67
2022-07-26T02:12:09.387Z,74.42
2022-07-26T02:14:36.052Z,76.55
2022-07-26T02:17:03.554Z,75.37
2022-07-26T02:19:30.519Z,76.63
2022-07-26T02:21:57.200Z,75.61
2022-07-26T02:24:24.530Z,75.21
2022-07-26T02:26:51.202Z,77.19
2022-07-26T02:29:17.856Z,74.58
2022-07-26T02:31:48.268Z,75.16
2022-07-26T02:34:16.568Z,76.81
2022-07-26T02:36:43.664Z,77.18
2022-07-26T02:39:10.433Z,73.37
2022-07-26T02:41:37.337Z,71.66
2022-07-26T02:44:05.188Z,70.65
2022-07-26T02:46:32.343Z,72.49
2022-07-26T02:49:00.862Z,71.21
2022-07-26T02:51:28.066Z,71.43
2022-07-26T02:53:54.826Z,70.87
2022-07-26T02:56:21.553Z,71.35
2022-07-26T02:58:48.205Z,71.33
2022-07-26T03:01:15.125Z,71.55
2022-07-26T03:03:43.123Z,70.86
2022-07-26T03:06:11.446Z,70.49
2022-07-26T03:08:53.816Z,71.11
2022-07-26T03:11:20.434Z,70.48
2022-07-26T03:13:47.057Z,70.20
2022-07-26T03:16:13.824Z,70.27
2022-07-26T03:18:40.570Z,70.19
2022-07-26T03:21:07.540Z,70.31
2022-07-26T03:23:35.037Z,70.51
2022-07-26T03:26:02.165Z,71.54
2022-07-26T03:28:33.202Z,70.85
2022-07-26T03:31:00.166Z,70.72
2022-07-26T03:33:26.932Z,70.15
2022-07-26T03:35:53.569Z,70.90
2022-07-26T03:38:21.488Z,71.64
2022-07-26T03:40:48.330Z,70.21
2022-07-26T03:43:14.940Z,69.55
2022-07-26T03:45:42.510Z,71.07
2022-07-26T03:48:09.394Z,71.05
2022-07-26T03:50:36.090Z,70.42
2022-07-26T03:53:02.962Z,70.65
2022-07-26T03:55:48.052Z,69.84
2022-07-26T03:58:14.793Z,69.42
2022-07-26T04:00:41.510Z,71.02
2022-07-26T04:03:08.600Z,71.00
2022-07-26T04:05:35.214Z,68.92
2022-07-26T04:08:03.283Z,70.22
2022-07-26T04:10:30.083Z,72.25
2022-07-26T04:13:02.281Z,72.09
2022-07-26T04:15:28.950Z,73.30
2022-07-26T04:17:55.564Z,71.32
2022-07-26T04:20:22.192Z,70.29
2022-07-26T04:22:48.836Z,71.99
2022-07-26T04:25:15.727Z,72.30
2022-07-26T04:27:42.425Z,72.45
2022-07-26T04:30:14.699Z,72.41
2022-07-26T04:32:42.072Z,73.02
2022-07-26T04:35:09.377Z,71.49
2022-07-26T04:37:40.455Z,71.64
2022-07-26T04:40:08.437Z,74.04
2022-07-26T04:42:35.646Z,72.10
2022-07-26T04:45:08.036Z,71.39
2022-07-26T04:47:35.557Z,72.22
2022-07-26T04:50:04.367Z,71.29
2022-07-26T04:52:30.991Z,72.13
2022-07-26T04:54:57.644Z,70.73
2022-07-26T04:57:24.280Z,70.45
2022-07-26T05:00:09.947Z,70.54
2022-07-26T05:02:37.966Z,70.14
2022-07-26T05:05:06.193Z,70.03
2022-07-26T05:07:41.043Z,70.15
2022-07-26T05:10:08.397Z,69.87
2022-07-26T05:12:35.057Z,70.21
2022-07-26T05:15:01.915Z,69.51
2022-07-26T05:17:31.474Z,69.74
2022-07-26T05:20:03.408Z,69.28
2022-07-26T05:22:30.279Z,70.09
2022-07-26T05:24:56.879Z,68.29
2022-07-26T05:27:23.621Z,67.45
2022-07-26T05:29:50.224Z,68.04
2022-07-26T05:32:16.845Z,68.18
2022-07-26T05:34:43.456Z,67.33
2022-07-26T05:37:10.464Z,68.26
2022-07-26T05:39:37.464Z,68.31
2022-07-26T05:42:04.283Z,67.10
2022-07-26T05:44:30.935Z,67.29
2022-07-26T05:46:57.632Z,62.80
2022-07-26T05:49:26.016Z,61.12
2022-07-26T05:51:54.252Z,60.10
2022-07-26T05:54:23.538Z,59.03
2022-07-26T05:56:50.182Z,58.60
2022-07-26T05:59:16.833Z,58.13
2022-07-26T06:01:43.453Z,57.70
2022-07-26T06:04:10.710Z,57.53
2022-07-26T06:06:37.687Z,57.39
2022-07-26T06:09:04.556Z,56.62
2022-07-26T06:11:31.275Z,56.43
2022-07-26T06:13:57.985Z,56.46
2022-07-26T06:16:24.620Z,56.29
2022-07-26T06:18:51.252Z,55.87
2022-07-26T06:21:17.855Z,55.25
2022-07-26T06:23:44.646Z,55.81
2022-07-26T06:26:12.243Z,55.22
2022-07-26T06:28:39.559Z,55.28
2022-07-26T06:31:06.191Z,55.67
2022-07-26T06:33:32.779Z,55.27
2022-07-26T06:35:59.495Z,55.53
2022-07-26T06:38:26.240Z,54.19
2022-07-26T06:40:53.177Z,54.58
2022-07-26T06:43:20.753Z,54.22
2022-07-26T06:45:47.461Z,54.59
2022-07-26T06:48:14.408Z,54.08
2022-07-26T06:50:41.381Z,56.00
2022-07-26T06:53:07.986Z,55.68
2022-07-26T06:55:34.664Z,54.99
2022-07-26T06:58:01.293Z,54.81
2022-07-26T07:00:27.967Z,55.32
2022-07-26T07:02:54.557Z,55.10
2022-07-26T07:05:21.283Z,54.03
2022-07-26T07:07:47.890Z,54.09
2022-07-26T07:10:14.803Z,55.19
2022-07-26T07:12:51.913Z,54.52
2022-07-26T07:15:18.620Z,54.30
2022-07-26T07:17:45.251Z,54.84
2022-07-26T07:20:12.304Z,54.29
2022-07-26T07:22:38.963Z,53.39
2022-07-26T07:25:06.353Z,53.31
2022-07-26T07:27:33.323Z,53.36
2022-07-26T07:30:00.136Z,52.51
2022-07-26T07:32:26.792Z,52.37
2022-07-26T07:34:55.329Z,52.72
2022-07-26T07:37:21.970Z,53.30
2022-07-26T07:39:50.589Z,52.59
2022-07-26T07:42:18.199Z,52.97
2022-07-26T07:44:44.799Z,53.04
2022-07-26T07:47:11.992Z,52.95
2022-07-26T07:49:38.839Z,52.16
2022-07-26T07:52:05.701Z,50.93
2022-07-26T07:54:32.364Z,49.72
2022-07-26T07:56:59.090Z,49.23
2022-07-26T07:59:25.760Z,50.94
2022-07-26T08:01:52.561Z,53.06
2022-07-26T08:04:19.393Z,54.48
2022-07-26T08:06:50.225Z,53.01
2022-07-26T08:09:18.831Z,53.10
2022-07-26T08:11:45.803Z,51.52
2022-07-26T08:14:18.481Z,52.44
2022-07-26T08:16:45.296Z,51.17
2022-07-26T08:19:12.240Z,51.89
2022-07-26T08:21:39.071Z,51.12
2022-07-26T08:24:06.932Z,52.98
2022-07-26T08:26:33.561Z,54.21
2022-07-26T08:29:00.618Z,53.45
2022-07-26T08:31:28.757Z,53.39
2022-07-26T08:33:55.898Z,51.73
2022-07-26T08:36:23.092Z,50.87
2022-07-26T08:38:49.695Z,48.97
2022-07-26T08:41:17.895Z,46.88
2022-07-26T08:43:51.864Z,49.43
2022-07-26T08:46:25.307Z,51.64
2022-07-26T08:48:54.069Z,50.98
2022-07-26T08:51:23.323Z,48.98
2022-07-26T08:53:53.009Z,46.67
2022-07-26T08:56:19.774Z,45.84
2022-07-26T08:58:46.350Z,46.20
2022-07-26T09:01:13.739Z,46.73
2022-07-26T09:03:45.657Z,46.08
2022-07-26T09:06:17.217Z,46.90
2022-07-26T09:08:45.423Z,44.61
2022-07-26T09:11:24.097Z,45.24
2022-07-26T09:13:52.959Z,46.55
2022-07-26T09:16:19.627Z,44.84
2022-07-26T09:18:46.576Z,45.48
2022-07-26T09:21:34.265Z,45.80
2022-07-26T09:24:00.972Z,47.40
2022-07-26T09:26:28.337Z,48.73
2022-07-26T09:29:03.883Z,47.73
2022-07-26T09:31:30.571Z,45.31
2022-07-26T09:33:58.908Z,45.45
2022-07-26T09:36:26.608Z,46.23
2022-07-26T09:38:55.456Z,45.79
2022-07-26T09:41:35.124Z,45.04
2022-07-26T09:44:04.204Z,45.04
2022-07-26T09:46:32.463Z,45.19
2022-07-26T09:49:16.995Z,46.21
2022-07-26T09:51:46.373Z,44.40
2022-07-26T09:54:36.933Z,45.79
2022-07-26T09:57:03.710Z,46.74
2022-07-26T09:59:30.748Z,47.60
2022-07-26T10:02:00.205Z,47.00
2022-07-26T10:04:27.466Z,43.59
2022-07-26T10:06:54.942Z,45.36
2022-07-26T10:09:25.631Z,44.82
2022-07-26T10:12:00.845Z,46.32
2022-07-26T10:14:33.328Z,45.78
2022-07-26T10:17:01.753Z,46.03
2022-07-26T10:19:47.631Z,46.96
2022-07-26T10:22:23.492Z,47.79
2022-07-26T10:24:57.382Z,49.13
2022-07-26T10:27:41.241Z,50.10
2022-07-26T10:30:20.012Z,48.67
2022-07-26T10:33:13.810Z,46.49
2022-07-26T10:35:44.416Z,46.84
2022-07-26T10:38:13.156Z,46.95
2022-07-26T10:41:03.419Z,48.04
2022-07-26T10:43:40.671Z,45.38
2022-07-26T10:46:20.436Z,44.03
2022-07-26T10:48:57.580Z,42.17
2022-07-26T10:51:32.707Z,42.53
2022-07-26T10:54:10.834Z,42.68
2022-07-26T10:56:38.212Z,43.73
2022-07-26T10:59:06.286Z,44.27
2022-07-26T11:01:38.064Z,45.18
2022-07-26T11:04:06.041Z,45.48
2022-07-26T11:06:32.995Z,46.12
2022-07-26T11:09:10.390Z,43.28
2022-07-26T11:11:36.985Z,42.04
2022-07-26T11:14:08.797Z,41.10
2022-07-26T11:16:44.391Z,41.91
2022-07-26T11:19:26.053Z,42.13
2022-07-26T11:21:58.993Z,41.89
2022-07-26T11:24:27.053Z,41.78
2022-07-26T11:26:54.634Z,41.44
2022-07-26T11:29:38.061Z,40.12
2022-07-26T11:32:14.773Z,39.29
2022-07-26T11:34:45.327Z,40.80
2022-07-26T11:37:12.348Z,42.27
2022-07-26T11:39:38.979Z,42.58
2022-07-26T11:42:08.446Z,43.28
2022-07-26T11:44:36.037Z,42.99
2022-07-26T11:47:24.516Z,43.29
2022-07-26T11:52:40.214Z,42.19
2022-07-26T11:55:07.363Z,41.50
2022-07-26T11:57:34.007Z,41.51
2022-07-26T12:00:01.452Z,40.88
2022-07-26T12:02:38.270Z,40.50
2022-07-26T12:05:21.549Z,41.54
2022-07-26T12:08:03.943Z,41.68
2022-07-26T12:10:30.725Z,41.16
2022-07-26T12:13:08.061Z,39.04
2022-07-26T12:15:49.667Z,39.80
2022-07-26T12:18:27.937Z,38.62
2022-07-26T12:21:09.130Z,38.57
2022-07-26T12:23:50.079Z,37.64
2022-07-26T12:26:23.166Z,38.01
2022-07-26T12:28:49.837Z,37.69
2022-07-26T12:31:46.251Z,36.98
2022-07-26T12:34:19.730Z,39.00
2022-07-26T12:36:46.348Z,40.65
2022-07-26T12:39:22.509Z,40.89
2022-07-26T12:41:50.554Z,40.91
2022-07-26T12:44:17.512Z,40.58
2022-07-26T12:46:47.376Z,40.72
2022-07-26T12:49:14.199Z,41.02
2022-07-26T12:51:41.314Z,42.35
2022-07-26T12:54:09.030Z,44.21
2022-07-26T12:56:35.865Z,43.61
2022-07-26T12:59:02.693Z,42.37
2022-07-26T13:01:31.423Z,45.65
2022-07-26T13:03:58.407Z,47.06
2022-07-26T13:06:25.026Z,48.32
2022-07-26T13:08:51.643Z,49.00
2022-07-26T13:11:18.257Z,49.36
2022-07-26T13:13:44.924Z,49.51
2022-07-26T13:16:12.531Z,49.31
2022-07-26T13:18:39.536Z,49.41
2022-07-26T13:21:06.365Z,50.53
2022-07-26T13:23:34.924Z,51.66
2022-07-26T13:26:02.698Z,51.96
2022-07-26T13:28:30.131Z,51.94
2022-07-26T13:30:56.798Z,51.68
2022-07-26T13:33:23.550Z,50.25
2022-07-26T13:35:50.497Z,50.03
2022-07-26T13:38:19.614Z,50.07
2022-07-26T13:40:46.356Z,49.72
2022-07-26T13:43:13.151Z,49.61
2022-07-26T13:45:39.791Z,49.10
2022-07-26T13:48:07.113Z,47.76
2022-07-26T13:50:33.858Z,47.05
2022-07-26T13:53:00.484Z,46.61
2022-07-26T13:55:27.161Z,46.40
2022-07-26T13:57:57.069Z,45.49
2022-07-26T14:00:26.201Z,45.35
2022-07-26T14:02:53.430Z,44.20
2022-07-26T14:05:20.385Z,44.55
2022-07-26T14:07:47.010Z,44.29
2022-07-26T14:10:13.838Z,44.12
2022-07-26T14:12:40.838Z,44.03
2022-07-26T14:15:15.444Z,44.44
2022-07-26T14:17:45.530Z,43.24
2022-07-26T14:20:12.870Z,43.33
2022-07-26T14:22:39.537Z,43.80
2022-07-26T14:25:07.262Z,43.64
2022-07-26T14:27:33.876Z,44.13
2022-07-26T14:30:00.471Z,44.03
2022-07-26T14:32:27.252Z,45.18
2022-07-26T14:34:53.901Z,44.61
2022-07-26T14:37:43.762Z,44.23
2022-07-26T14:40:07.888Z,44.64
2022-07-26T14:42:34.518Z,44.71
2022-07-26T14:45:01.160Z,44.69
2022-07-26T14:47:27.777Z,45.53
2022-07-26T14:49:54.392Z,45.58
2022-07-26T14:52:21.073Z,45.36
2022-07-26T14:54:47.711Z,45.09
2022-07-26T14:57:14.315Z,44.60
2022-07-26T14:59:40.936Z,46.13
2022-07-26T15:02:08.821Z,44.91
2022-07-26T15:04:35.518Z,44.53
2022-07-26T15:07:02.141Z,45.32
2022-07-26T15:09:28.777Z,46.83
2022-07-26T15:12:00.379Z,47.72
2022-07-26T15:14:27.003Z,47.00
2022-07-26T15:16:53.711Z,47.17
2022-07-26T15:19:25.364Z,47.14
2022-07-26T15:21:54.271Z,46.58
2022-07-26T15:24:23.627Z,46.61
2022-07-26T15:26:51.091Z,47.13
2022-07-26T15:29:17.685Z,47.27
2022-07-26T15:31:44.669Z,47.27
2022-07-26T15:34:11.925Z,47.22
2022-07-26T15:36:38.889Z,46.89
2022-07-26T15:39:16.626Z,46.49
2022-07-26T15:41:45.499Z,47.42
2022-07-26T15:44:12.490Z,47.76
2022-07-26T15:46:39.691Z,48.04
2022-07-26T15:49:07.414Z,48.16
2022-07-26T15:51:34.563Z,47.86
2022-07-26T15:54:03.115Z,47.87
2022-07-26T15:56:29.907Z,48.50
2022-07-26T15:58:56.583Z,48.57
2022-07-26T16:01:23.497Z,47.96
2022-07-26T16:03:50.255Z,47.82
2022-07-26T16:06:17.183Z,47.75
2022-07-26T16:09:05.782Z,47.14
2022-07-26T16:11:31.428Z,47.25
2022-07-26T16:14:01.366Z,47.69
2022-07-26T16:16:30.458Z,47.10
2022-07-26T16:18:57.299Z,47.42
2022-07-26T16:21:24.447Z,47.59
2022-07-26T16:23:51.272Z,46.93
2022-07-26T16:26:18.451Z,47.54
2022-07-26T16:28:45.061Z,47.93
2022-07-26T16:31:12.813Z,47.89
2022-07-26T16:33:46.096Z,47.81
2022-07-26T16:36:14.224Z,47.64
2022-07-26T16:38:41.182Z,47.70
2022-07-26T16:41:07.962Z,48.28
2022-07-26T16:43:35.375Z,48.42
2022-07-26T16:46:02.268Z,48.33
2022-07-26T16:48:29.011Z,48.38
2022-07-26T16:50:55.829Z,48.38
2022-07-26T16:53:22.458Z,48.27
2022-07-26T16:55:51.795Z,48.26
2022-07-26T16:58:19.353Z,48.43
2022-07-26T17:00:46.948Z,48.58
2022-07-26T17:03:15.720Z,48.71
2022-07-26T17:05:44.585Z,48.94
2022-07-26T17:08:11.279Z,49.51
2022-07-26T17:10:38.424Z,49.53
2022-07-26T17:13:10.157Z,50.59
2022-07-26T17:15:37.162Z,50.57
2022-07-26T17:18:04.181Z,50.59
2022-07-26T17:20:30.802Z,51.36
2022-07-26T17:22:57.536Z,52.49
2022-07-26T17:25:24.153Z,52.01
2022-07-26T17:27:51.224Z,51.36
2022-07-26T17:30:18.044Z,51.48
2022-07-26T17:32:44.686Z,51.62
2022-07-26T17:35:11.355Z,51.78
2022-07-26T17:37:38.033Z,51.32
2022-07-26T17:40:08.087Z,51.55
2022-07-26T17:42:35.463Z,51.71
2022-07-26T17:45:02.540Z,51.94
2022-07-26T17:47:30.508Z,53.69
2022-07-26T17:50:37.677Z,54.98
2022-07-26T17:52:50.657Z,56.30
2022-07-26T17:55:21.230Z,56.73
2022-07-26T17:57:49.715Z,57.63
2022-07-26T18:00:21.545Z,57.71
2022-07-26T18:02:48.971Z,58.51
2022-07-26T18:05:16.640Z,58.47
2022-07-26T18:07:43.765Z,58.66
2022-07-26T18:10:11.813Z,58.51
2022-07-26T18:12:38.982Z,58.44
2022-07-26T18:15:08.219Z,59.27
2022-07-26T18:17:35.721Z,59.37
2022-07-26T18:20:04.049Z,59.46
2022-07-26T18:22:31.704Z,58.89
2022-07-26T18:24:58.971Z,59.99
2022-07-26T18:27:28.451Z,60.14
2022-07-26T18:29:56.918Z,60.48
2022-07-26T18:32:24.675Z,60.39
2022-07-26T18:34:52.676Z,60.70
2022-07-26T18:37:21.161Z,61.13
2022-07-26T18:39:55.426Z,61.33
2022-07-26T18:42:24.481Z,61.57
2022-07-26T18:44:51.653Z,61.71
2022-07-26T18:47:18.554Z,62.16
2022-07-26T18:49:45.667Z,61.70
2022-07-26T18:52:12.743Z,62.13
2022-07-26T18:54:40.245Z,62.00
2022-07-26T18:57:07.308Z,62.67
2022-07-26T18:59:34.615Z,62.24
2022-07-26T19:02:01.685Z,62.14
2022-07-26T19:04:29.205Z,61.87
2022-07-26T19:06:56.549Z,62.86
2022-07-26T19:09:23.376Z,62.76
2022-07-26T19:11:50.146Z,61.81
2022-07-26T19:14:16.786Z,62.00
2022-07-26T19:16:43.813Z,61.98
2022-07-26T19:19:11.169Z,62.39
2022-07-26T19:21:40.195Z,62.05
2022-07-26T19:24:07.702Z,61.97
2022-07-26T19:26:35.997Z,62.15
2022-07-26T19:29:03.087Z,61.96
2022-07-26T19:31:30.239Z,61.98
2022-07-26T19:33:57.446Z,61.85
2022-07-26T19:36:25.383Z,61.96
2022-07-26T19:38:56.811Z,61.88
2022-07-26T19:41:24.224Z,62.06
2022-07-26T19:43:51.007Z,62.09
2022-07-26T19:46:18.193Z,62.11
2022-07-26T19:48:45.313Z,62.06
2022-07-26T19:51:12.244Z,62.20
2022-07-26T19:53:39.150Z,62.58
2022-07-26T19:56:07.127Z,62.41
2022-07-26T19:58:34.169Z,62.23
2022-07-26T20:01:01.613Z,62.82
2022-07-26T20:03:28.554Z,62.62
2022-07-26T20:05:56.883Z,62.84
2022-07-26T20:08:24.781Z,63.14
2022-07-26T20:10:51.673Z,63.00
2022-07-26T20:13:18.653Z,63.12
2022-07-26T20:15:47.435Z,62.78
2022-07-26T20:18:14.397Z,62.65
2022-07-26T20:20:41.406Z,62.41
2022-07-26T20:23:11.167Z,62.35
2022-07-26T20:25:38.247Z,62.28
2022-07-26T20:28:05.407Z,62.26
2022-07-26T20:30:32.360Z,62.50
2022-07-26T20:32:59.014Z,62.46
2022-07-26T20:35:25.675Z,62.39
2022-07-26T20:37:52.256Z,62.69
2022-07-26T20:40:18.968Z,62.40
2022-07-26T20:42:47.656Z,62.57
2022-07-26T20:45:17.052Z,62.82
2022-07-26T20:47:44.116Z,62.83
2022-07-26T20:50:11.877Z,62.76
2022-07-26T20:52:38.980Z,62.93
2022-07-26T20:55:06.279Z,63.18
2022-07-26T20:57:33.034Z,63.58
2022-07-26T20:59:59.664Z,63.53
2022-07-26T21:02:26.661Z,63.98
2022-07-26T21:04:53.482Z,63.96
2022-07-26T21:07:20.105Z,64.14
2022-07-26T21:09:46.762Z,64.88
2022-07-26T21:12:13.409Z,65.56
2022-07-26T21:14:39.977Z,65.25
2022-07-26T21:17:11.340Z,65.47
2022-07-26T21:19:39.093Z,65.62
2022-07-26T21:22:05.793Z,65.59
2022-07-26T21:24:32.839Z,65.69
2022-07-26T21:26:59.547Z,66.83
2022-07-26T21:29:26.264Z,66.48
2022-07-26T21:31:53.122Z,65.94
2022-07-26T21:34:19.868Z,66.19
2022-07-26T21:36:46.791Z,66.21
2022-07-26T21:39:14.010Z,67.92
2022-07-26T21:41:41.076Z,66.58
2022-07-26T21:44:07.788Z,67.30
2022-07-26T21:46:34.510Z,66.62
2022-07-26T21:49:01.295Z,66.91
2022-07-26T21:51:27.927Z,66.76
2022-07-26T21:53:54.858Z,67.43
2022-07-26T21:56:21.762Z,66.70
2022-07-26T21:58:48.406Z,66.56
2022-07-26T22:01:15.204Z,67.24
2022-07-26T22:03:42.533Z,67.18
2022-07-26T22:06:10.140Z,67.37
2022-07-26T22:08:37.587Z,67.33
2022-07-26T22:11:04.619Z,67.11
2022-07-26T22:13:31.490Z,67.06
2022-07-26T22:15:58.128Z,67.17
2022-07-26T22:18:24.948Z,68.64
2022-07-26T22:20:51.733Z,68.67
2022-07-26T22:23:18.970Z,67.36
2022-07-26T22:25:46.159Z,67.99
2022-07-26T22:28:18.540Z,68.56
2022-07-26T22:30:46.209Z,67.78
2022-07-26T22:33:13.058Z,67.82
2022-07-26T22:35:39.775Z,68.31
2022-07-26T22:38:08.939Z,68.21
2022-07-26T22:40:37.084Z,67.72
2022-07-26T22:43:03.985Z,68.11
2022-07-26T22:45:31.369Z,68.01
2022-07-26T22:47:58.456Z,68.00
2022-07-26T22:50:25.737Z,67.95
2022-07-26T22:52:52.699Z,67.89
2022-07-26T22:55:19.788Z,67.57
2022-07-26T22:57:46.835Z,68.26
2022-07-26T23:00:18.920Z,68.14
2022-07-26T23:02:46.100Z,68.99
2022-07-26T23:05:14.948Z,69.52
2022-07-26T23:07:42.130Z,68.21
2022-07-26T23:10:13.050Z,68.85
2022-07-26T23:12:54.782Z,68.60
2022-07-26T23:15:21.400Z,69.05
2022-07-26T23:17:48.034Z,69.72
2022-07-26T23:20:14.731Z,69.53
2022-07-26T23:22:43.332Z,71.32
2022-07-26T23:25:10.200Z,69.64
2022-07-26T23:27:36.828Z,69.88
2022-07-26T23:30:03.818Z,70.35
2022-07-26T23:32:30.454Z,70.20
2022-07-26T23:34:57.162Z,70.32
2022-07-26T23:37:23.805Z,70.72
2022-07-26T23:39:50.425Z,71.07
2022-07-26T23:42:17.147Z,71.26
2022-07-26T23:44:43.764Z,72.33
2022-07-26T23:47:10.476Z,71.37
2022-07-26T23:49:37.096Z,71.97
2022-07-26T23:52:03.945Z,71.96
2022-07-26T23:54:30.589Z,72.58
2022-07-26T23:56:57.341Z,72.62
2022-07-26T23:59:24.001Z,72.60
